KPIH Airport (Pocatello Rgnl) Information

FAA: PIH - ICAO: KPIH

KPIH Airport Location

State Idaho
County Power
City Pocatello
KPIH Airport is 7 miles northwest of Pocatello, ID.
Latitude 42-54-35.2530N
Longitude 112-35-45.3080W
Elevation 4,451ft

KPIH Airport METARs

METAR KPIH 240853Z 00000KT 10SM CLR 08/02 A3026 RMK AO2 SLP221 T00830022 53005
Altimeter 30.26"
Temperature 8.3°C (46.9°F)
Wind 0° at 0KT
Clouds Skies are clear.
Visibility 10.0mi
Time observed: 2021-09-24T08:53:00Z

KPIH Airport Details

Status Operational
Activation February 1944
Ownership Public
Usage Public
Chart SALT LAKE CITY
ATC on-site Yes
Beacon schedule sunset-sunrise
Beacon color clear green

KPIH Airport Contacts

Owner CITY OF POCATELLO
Owner address P.O. BOX 4169, POCATELLO, ID 83205-4169
Owner phone 208-234-6163
Manager DIV ADMIN
Manager address P.O. BOX 7129, BOISE, ID 83707-1129
Manager phone 208-334-8775

KPIH Airport (Pocatello Rgnl) Radio Frequencies

KPIH (Airport) Radio Frequencies

UNICOM 122.95
Common traffic advisory frequency (CTAF) 119.1